Time;durP1;ratioP1;P1;durP2;ratioP2;P2;SDS_P1;SDS_P2;PMS_P1;PMS_P2;Temp;Humidity;BMP_temperature;BMP_pressure;BME280_temperature;BME280_humidity;BME280_pressure;Samples;Min_cycle;Max_cycle;Signal;HPM_P1;HPM_P2
2023/12/01 00:00:48;;;;;;;26.20;15.53;;;;;;;4.34;100.00;94265.34;4991302;28;20185;-42
2023/12/01 00:03:15;;;;;;;23.73;14.60;;;;;;;4.26;100.00;94268.41;4992433;28;20221;-41
2023/12/01 00:05:43;;;;;;;26.37;15.53;;;;;;;4.25;100.00;94269.34;4991818;28;20199;-41
2023/12/01 00:08:10;;;;;;;25.43;15.80;;;;;;;4.26;100.00;94262.56;4991934;28;20240;-43
2023/12/01 00:10:36;;;;;;;25.53;15.23;;;;;;;4.27;100.00;94281.88;4991268;28;20182;-42
2023/12/01 00:13:03;;;;;;;20.50;15.43;;;;;;;4.31;100.00;94247.84;4972944;28;20190;-42
2023/12/01 00:15:30;;;;;;;25.33;14.93;;;;;;;4.28;100.00;94259.00;4972443;28;20190;-42
2023/12/01 00:17:57;;;;;;;22.93;14.77;;;;;;;4.32;100.00;94263.81;4972462;28;20215;-42
2023/12/01 00:20:23;;;;;;;21.90;14.77;;;;;;;4.34;100.00;94256.94;4974682;28;20646;-42
2023/12/01 00:22:52;;;;;;;22.23;14.37;;;;;;;4.34;100.00;94259.47;4991565;28;20267;-42
2023/12/01 00:25:19;;;;;;;22.63;15.57;;;;;;;4.33;100.00;94251.06;4991370;28;20279;-41
2023/12/01 00:27:46;;;;;;;24.20;16.07;;;;;;;4.35;100.00;94248.44;4991352;28;20688;-41
2023/12/01 00:30:13;;;;;;;26.30;15.70;;;;;;;4.37;100.00;94237.28;4991478;28;20239;-42
2023/12/01 00:32:39;;;;;;;24.80;15.47;;;;;;;4.37;100.00;94244.88;4990279;28;20224;-42
2023/12/01 00:35:06;;;;;;;23.87;15.67;;;;;;;4.36;100.00;94243.28;4991542;28;20604;-42
2023/12/01 00:37:32;;;;;;;25.17;15.30;;;;;;;4.36;100.00;94228.09;4991162;28;20232;-41
2023/12/01 00:40:01;;;;;;;21.43;14.83;;;;;;;4.36;100.00;94253.41;4991226;28;20208;-41
2023/12/01 00:42:28;;;;;;;22.63;15.40;;;;;;;4.26;100.00;94225.41;4990571;28;20200;-41
2023/12/01 00:44:56;;;;;;;24.13;16.43;;;;;;;4.32;100.00;94241.03;4991421;28;20204;-42
2023/12/01 00:47:22;;;;;;;25.27;15.47;;;;;;;4.36;100.00;94243.28;4991038;28;20197;-42
2023/12/01 00:49:49;;;;;;;26.47;16.60;;;;;;;4.40;100.00;94243.81;4991206;28;20232;-41
2023/12/01 00:52:16;;;;;;;22.27;14.93;;;;;;;4.40;100.00;94261.56;4990927;28;20626;-42
2023/12/01 00:54:43;;;;;;;23.40;15.03;;;;;;;4.45;100.00;94259.50;4990582;28;20208;-41
2023/12/01 00:57:11;;;;;;;21.90;15.13;;;;;;;4.42;100.00;94255.47;4990748;28;20196;-43
2023/12/01 00:59:38;;;;;;;24.10;15.67;;;;;;;4.46;100.00;94231.56;4991066;28;20726;-41
2023/12/01 01:02:05;;;;;;;22.40;14.87;;;;;;;4.41;100.00;94261.47;4990674;28;20193;-41
2023/12/01 01:04:32;;;;;;;25.40;16.10;;;;;;;4.41;100.00;94240.41;4990596;28;20223;-41
2023/12/01 01:06:58;;;;;;;28.20;15.47;;;;;;;4.42;100.00;94221.75;4990754;28;20225;-41
2023/12/01 01:09:26;;;;;;;24.43;14.93;;;;;;;4.36;100.00;94217.13;4990410;28;20529;-42
2023/12/01 01:11:53;;;;;;;21.23;14.50;;;;;;;4.48;100.00;94183.31;4991375;28;20192;-42
2023/12/01 01:14:21;;;;;;;21.00;14.13;;;;;;;4.45;100.00;94221.53;4990416;28;20188;-41
2023/12/01 01:16:48;;;;;;;20.10;14.17;;;;;;;4.46;100.00;94235.81;4990571;28;20201;-43
2023/12/01 01:19:14;;;;;;;24.97;14.00;;;;;;;4.44;100.00;94251.09;4990466;28;20252;-42
2023/12/01 01:21:41;;;;;;;23.60;14.70;;;;;;;4.46;100.00;94213.81;4990723;28;20193;-41
2023/12/01 01:24:08;;;;;;;21.43;14.23;;;;;;;4.38;100.00;94225.44;4990531;28;20224;-41
2023/12/01 01:26:35;;;;;;;21.77;14.73;;;;;;;4.42;100.00;94230.16;4989838;28;20188;-42
2023/12/01 01:29:02;;;;;;;21.33;14.10;;;;;;;4.40;100.00;94200.81;4990236;28;20197;-42
2023/12/01 01:31:30;;;;;;;22.13;14.47;;;;;;;4.47;100.00;94252.59;4990449;28;20199;-42
2023/12/01 01:33:56;;;;;;;21.10;14.57;;;;;;;4.54;100.00;94185.41;4989771;28;20247;-42
2023/12/01 01:36:23;;;;;;;23.00;13.43;;;;;;;4.49;100.00;94216.13;4989977;28;20193;-41
2023/12/01 01:38:50;;;;;;;20.43;14.13;;;;;;;4.36;100.00;94197.72;4989971;28;20200;-42
2023/12/01 01:41:17;;;;;;;23.17;14.30;;;;;;;4.50;100.00;94219.47;4990160;28;20639;-41
2023/12/01 01:43:43;;;;;;;20.33;14.77;;;;;;;4.51;100.00;94194.03;4990168;28;20236;-41
2023/12/01 01:46:12;;;;;;;19.40;14.43;;;;;;;4.55;100.00;94209.00;4989773;28;20645;-42
2023/12/01 01:48:41;;;;;;;23.47;14.97;;;;;;;4.51;100.00;94201.63;4981355;28;20301;-43
2023/12/01 01:51:09;;;;;;;26.23;15.40;;;;;;;4.52;100.00;94220.97;4990392;28;20338;-41
2023/12/01 01:53:38;;;;;;;21.13;13.77;;;;;;;4.56;100.00;94219.00;4989976;28;20665;-42
2023/12/01 01:56:06;;;;;;;21.93;13.87;;;;;;;4.61;100.00;94165.50;4990211;28;20197;-42
2023/12/01 01:58:33;;;;;;;23.03;14.93;;;;;;;4.60;100.00;94230.53;4989482;28;20189;-42
2023/12/01 02:01:00;;;;;;;18.43;13.50;;;;;;;4.51;100.00;94193.22;4989749;28;20316;-43
2023/12/01 02:03:26;;;;;;;21.70;14.83;;;;;;;4.53;100.00;94224.28;4989819;28;20192;-43
2023/12/01 02:05:55;;;;;;;23.43;15.37;;;;;;;4.54;100.00;94167.69;4991669;28;20272;-40
2023/12/01 02:08:25;;;;;;;21.17;14.93;;;;;;;4.58;100.00;94211.28;4996074;28;20220;-42
2023/12/01 02:10:53;;;;;;;22.47;14.77;;;;;;;4.34;100.00;94166.63;4996389;28;20216;-43
2023/12/01 02:13:20;;;;;;;22.70;13.67;;;;;;;4.60;100.00;94186.69;4996608;28;20197;-45
2023/12/01 02:15:48;;;;;;;25.97;16.10;;;;;;;4.49;100.00;94169.75;4996202;28;20661;-41
2023/12/01 02:18:22;;;;;;;24.40;16.23;;;;;;;4.51;100.00;94206.69;4995972;28;20640;-42
2023/12/01 02:20:50;;;;;;;24.03;15.60;;;;;;;4.38;100.00;94152.03;4986736;28;20184;-40
2023/12/01 02:23:18;;;;;;;24.07;16.20;;;;;;;4.61;100.00;94185.75;4996528;28;20192;-42
2023/12/01 02:25:44;;;;;;;22.47;15.53;;;;;;;4.63;100.00;94191.53;4996380;28;20631;-41
2023/12/01 02:28:11;;;;;;;20.83;14.70;;;;;;;4.61;100.00;94168.81;4996365;28;20201;-42
2023/12/01 02:30:38;;;;;;;23.73;15.63;;;;;;;4.63;100.00;94187.25;4996145;28;20188;-41
2023/12/01 02:33:05;;;;;;;23.33;15.17;;;;;;;4.67;100.00;94211.44;4996770;28;20592;-40
2023/12/01 02:35:32;;;;;;;23.13;14.20;;;;;;;4.40;100.00;94143.38;4996427;28;20403;-42
2023/12/01 02:37:59;;;;;;;24.77;14.97;;;;;;;4.65;100.00;94207.41;4996015;28;20688;-42
2023/12/01 02:40:27;;;;;;;22.17;15.67;;;;;;;4.66;100.00;94187.03;4996183;28;20197;-41
2023/12/01 02:42:55;;;;;;;25.63;15.27;;;;;;;4.68;100.00;94185.19;4996037;28;20185;-42
2023/12/01 02:45:22;;;;;;;22.53;15.07;;;;;;;4.69;100.00;94204.53;4996115;28;20286;-42
2023/12/01 02:47:49;;;;;;;27.23;16.13;;;;;;;4.70;100.00;94185.88;4996280;28;20193;-42
2023/12/01 02:50:17;;;;;;;22.90;15.30;;;;;;;4.76;100.00;94177.03;4996462;28;20613;-43
2023/12/01 02:52:44;;;;;;;21.40;13.93;;;;;;;4.84;100.00;94216.97;4995465;28;20196;-40
2023/12/01 02:55:11;;;;;;;22.90;14.30;;;;;;;4.88;100.00;94152.47;4996346;28;20192;-42
2023/12/01 02:57:40;;;;;;;24.87;14.60;;;;;;;4.89;100.00;94194.63;4996068;28;20591;-43
2023/12/01 03:00:10;;;;;;;20.70;13.70;;;;;;;4.88;100.00;94171.03;4996142;28;20251;-42
2023/12/01 03:02:37;;;;;;;17.37;13.13;;;;;;;4.83;100.00;94187.47;4995345;28;20652;-41
2023/12/01 03:05:05;;;;;;;20.63;13.83;;;;;;;4.82;100.00;94183.34;4996163;28;20228;-42
2023/12/01 03:07:32;;;;;;;19.47;13.83;;;;;;;4.83;100.00;94160.41;4995856;28;20240;-43
2023/12/01 03:09:58;;;;;;;22.27;14.30;;;;;;;4.86;100.00;94180.47;4995692;28;20690;-42
2023/12/01 03:12:25;;;;;;;20.47;13.77;;;;;;;4.86;100.00;94189.78;4996263;28;20592;-42
2023/12/01 03:14:53;;;;;;;22.33;15.00;;;;;;;4.89;100.00;94174.38;4996126;28;20585;-43
2023/12/01 03:17:23;;;;;;;21.03;13.23;;;;;;;4.85;100.00;94173.78;4994503;28;20714;-42
2023/12/01 03:19:50;;;;;;;21.13;13.77;;;;;;;4.79;100.00;94159.03;4992792;28;20201;-43
2023/12/01 03:22:17;;;;;;;19.60;12.27;;;;;;;4.89;100.00;94215.72;4993349;28;20208;-42
2023/12/01 03:24:45;;;;;;;22.53;14.50;;;;;;;4.90;100.00;94189.44;4991954;28;20734;-42
2023/12/01 03:27:12;;;;;;;19.90;13.70;;;;;;;4.93;100.00;94163.88;4993185;28;20201;-42
2023/12/01 03:29:39;;;;;;;17.63;12.13;;;;;;;4.89;100.00;94182.78;4992739;28;20197;-42
2023/12/01 03:32:07;;;;;;;19.13;13.13;;;;;;;4.98;100.00;94151.66;4992822;28;20193;-42
2023/12/01 03:34:35;;;;;;;21.37;12.93;;;;;;;5.01;100.00;94176.78;4991816;28;20204;-41
2023/12/01 03:37:02;;;;;;;14.37;10.57;;;;;;;5.02;100.00;94121.84;4992703;28;20192;-42
2023/12/01 03:39:28;;;;;;;19.77;11.53;;;;;;;5.13;100.00;94141.28;4992292;28;20205;-41
2023/12/01 03:41:56;;;;;;;18.40;10.53;;;;;;;5.13;100.00;94161.53;4992570;28;20219;-42
2023/12/01 03:44:22;;;;;;;18.27;12.00;;;;;;;5.26;100.00;94198.50;4992167;28;20240;-42
2023/12/01 03:46:49;;;;;;;17.10;11.53;;;;;;;5.27;100.00;94125.81;4992328;28;20194;-42
2023/12/01 03:49:17;;;;;;;14.57;10.93;;;;;;;5.33;100.00;94191.25;4992842;28;20239;-42
2023/12/01 03:51:44;;;;;;;15.90;10.23;;;;;;;5.38;100.00;94173.13;4992359;28;20197;-42
2023/12/01 03:54:11;;;;;;;13.70;9.53;;;;;;;5.38;100.00;94160.47;4992854;28;20193;-42
2023/12/01 03:56:38;;;;;;;11.03;8.97;;;;;;;5.41;100.00;94205.88;4991809;28;20243;-41
2023/12/01 03:59:09;;;;;;;16.33;9.53;;;;;;;5.40;100.00;94154.34;4992431;28;20188;-42
2023/12/01 04:01:37;;;;;;;15.67;9.77;;;;;;;5.56;100.00;94186.91;4991896;28;20188;-40
2023/12/01 04:04:04;;;;;;;12.23;8.43;;;;;;;5.46;100.00;94115.81;4992411;28;20641;-43
2023/12/01 04:06:33;;;;;;;14.10;8.67;;;;;;;5.73;100.00;94171.16;4991260;28;20782;-42
2023/12/01 04:09:05;;;;;;;19.27;9.03;;;;;;;5.81;100.00;94175.63;4991843;28;20263;-41
2023/12/01 04:11:35;;;;;;;14.30;8.70;;;;;;;5.92;100.00;94162.16;4991542;28;20259;-41
2023/12/01 04:14:03;;;;;;;12.67;8.87;;;;;;;5.94;100.00;94165.34;4991883;28;20652;-41
2023/12/01 04:16:30;;;;;;;11.27;8.77;;;;;;;5.94;100.00;94160.28;4991322;28;20197;-41
2023/12/01 04:18:57;;;;;;;14.90;9.40;;;;;;;5.95;100.00;94161.88;4991648;28;20197;-42
2023/12/01 04:21:24;;;;;;;13.27;8.83;;;;;;;6.05;100.00;94146.75;4991720;28;20201;-42
2023/12/01 04:23:52;;;;;;;11.47;7.97;;;;;;;5.94;100.00;94157.75;4991805;28;20200;-41
2023/12/01 04:26:19;;;;;;;13.00;8.40;;;;;;;6.06;99.95;94141.53;4991422;28;20759;-43
2023/12/01 04:28:46;;;;;;;11.97;8.80;;;;;;;6.02;100.00;94152.84;4998232;28;20188;-42
2023/12/01 04:31:12;;;;;;;10.30;8.13;;;;;;;6.03;100.00;94190.78;4992087;28;20193;-42
2023/12/01 04:33:39;;;;;;;10.60;7.83;;;;;;;6.06;99.80;94140.72;4991275;28;20197;-42
2023/12/01 04:36:07;;;;;;;13.70;8.60;;;;;;;6.04;99.97;94123.06;4991663;28;20251;-42
2023/12/01 04:38:35;;;;;;;9.90;8.43;;;;;;;5.94;100.00;94137.44;4990880;28;20209;-42
2023/12/01 04:41:09;;;;;;;13.03;7.27;;;;;;;5.97;100.00;94140.53;4991241;28;20283;-42
2023/12/01 04:43:37;;;;;;;11.53;8.50;;;;;;;5.89;100.00;94125.09;4991912;28;20188;-42
2023/12/01 04:46:05;;;;;;;11.70;9.00;;;;;;;5.97;100.00;94168.47;4991429;28;20213;-41
2023/12/01 04:48:31;;;;;;;14.10;8.50;;;;;;;5.98;100.00;94103.28;4990794;28;20197;-42
2023/12/01 04:50:58;;;;;;;10.93;8.00;;;;;;;5.98;100.00;94149.75;4990961;28;20185;-42
2023/12/01 04:53:26;;;;;;;10.73;7.53;;;;;;;6.06;100.00;94156.75;4991007;28;20224;-42
2023/12/01 04:55:53;;;;;;;14.27;7.80;;;;;;;6.09;100.00;94130.31;4991253;28;20200;-42
2023/12/01 04:58:21;;;;;;;12.00;8.07;;;;;;;6.09;100.00;94113.38;4991177;28;20188;-42
2023/12/01 05:00:47;;;;;;;10.20;7.23;;;;;;;6.10;100.00;94139.56;4991049;28;20181;-43
2023/12/01 05:03:14;;;;;;;11.00;7.47;;;;;;;6.15;100.00;94117.94;4990597;28;20196;-42
2023/12/01 05:05:42;;;;;;;9.27;7.30;;;;;;;6.22;100.00;94153.78;4990530;28;20205;-41
2023/12/01 05:08:10;;;;;;;10.07;7.23;;;;;;;6.12;100.00;94117.38;4990476;28;20232;-42
2023/12/01 05:10:38;;;;;;;11.10;7.70;;;;;;;6.05;100.00;94134.06;4990434;28;20256;-41
2023/12/01 05:13:07;;;;;;;11.23;8.17;;;;;;;6.20;99.88;94132.78;4990992;28;20189;-43
2023/12/01 05:15:36;;;;;;;11.67;8.47;;;;;;;6.33;99.88;94135.94;4989977;28;20189;-43
2023/12/01 05:18:05;;;;;;;14.97;8.47;;;;;;;6.35;99.62;94184.03;4990514;28;20201;-41
2023/12/01 05:20:32;;;;;;;13.10;7.67;;;;;;;6.39;99.37;94157.47;4990371;28;20695;-42
2023/12/01 05:23:01;;;;;;;15.97;8.33;;;;;;;6.18;99.53;94117.69;4990404;28;20244;-42
2023/12/01 05:25:32;;;;;;;12.80;8.30;;;;;;;6.03;99.71;94124.00;4990354;28;20220;-42
2023/12/01 05:28:00;;;;;;;14.73;8.83;;;;;;;6.33;99.46;94122.44;4990738;28;20292;-42
2023/12/01 05:30:28;;;;;;;13.20;8.07;;;;;;;6.28;100.00;94155.81;4989629;28;20204;-43
2023/12/01 05:32:58;;;;;;;12.53;8.00;;;;;;;5.66;100.00;94048.31;4990533;28;20218;-43
2023/12/01 05:35:25;;;;;;;13.33;8.97;;;;;;;6.25;100.00;94179.72;4989921;28;20296;-43
2023/12/01 05:37:53;;;;;;;12.77;9.17;;;;;;;6.29;100.00;94129.50;4990287;28;20201;-42
2023/12/01 05:40:21;;;;;;;13.47;8.17;;;;;;;6.31;99.80;94175.09;4989447;28;20707;-41
2023/12/01 05:42:49;;;;;;;13.57;8.73;;;;;;;6.30;100.00;94148.88;4990198;28;20208;-41
2023/12/01 05:45:17;;;;;;;13.87;9.00;;;;;;;6.24;99.81;94151.94;4989793;28;20628;-42
2023/12/01 05:47:46;;;;;;;11.90;9.07;;;;;;;6.19;100.00;94152.31;4990727;28;20192;-42
2023/12/01 05:50:18;;;;;;;12.60;9.57;;;;;;;6.19;100.00;94151.50;4989717;28;20284;-42
2023/12/01 05:52:46;;;;;;;11.47;8.80;;;;;;;6.16;100.00;94175.38;4990449;28;20648;-41
2023/12/01 05:55:17;;;;;;;13.30;10.10;;;;;;;6.21;100.00;94154.69;4990422;28;20201;-43
2023/12/01 05:57:45;;;;;;;14.93;10.47;;;;;;;6.17;100.00;94168.56;4990155;28;20197;-42
2023/12/01 06:00:15;;;;;;;16.00;10.03;;;;;;;6.19;100.00;94165.00;4989509;28;20193;-42
2023/12/01 06:02:42;;;;;;;13.13;8.67;;;;;;;6.26;100.00;94155.13;4990091;28;20204;-43
2023/12/01 06:05:11;;;;;;;12.93;9.13;;;;;;;6.02;100.00;94094.50;4990039;28;20224;-42
2023/12/01 06:07:41;;;;;;;16.47;9.33;;;;;;;6.29;100.00;94145.53;4989910;28;20271;-43
2023/12/01 06:10:09;;;;;;;13.20;8.17;;;;;;;6.32;100.00;94158.91;4989772;28;20203;-42
2023/12/01 06:12:37;;;;;;;14.00;10.13;;;;;;;6.31;100.00;94135.28;4989967;28;20196;-41
2023/12/01 06:15:06;;;;;;;15.00;8.57;;;;;;;6.41;100.00;94136.13;4989710;28;20209;-41
2023/12/01 06:17:33;;;;;;;13.23;9.10;;;;;;;6.50;99.93;94155.66;4987367;28;20289;-41
2023/12/01 06:19:59;;;;;;;10.87;8.17;;;;;;;6.50;100.00;94157.41;4984124;28;20201;-41
2023/12/01 06:22:26;;;;;;;12.67;9.77;;;;;;;6.54;100.00;94164.66;4988848;28;20209;-42
2023/12/01 06:24:54;;;;;;;18.63;9.33;;;;;;;6.57;100.00;94142.47;4988920;28;20211;-41
2023/12/01 06:27:22;;;;;;;15.67;10.13;;;;;;;6.56;100.00;94163.72;4984310;28;20244;-43
2023/12/01 06:29:50;;;;;;;19.10;10.43;;;;;;;6.60;100.00;94162.53;4984639;28;20244;-42
2023/12/01 06:32:17;;;;;;;15.73;10.67;;;;;;;6.65;100.00;94168.84;4981697;28;20641;-41
2023/12/01 06:34:44;;;;;;;20.40;11.03;;;;;;;5.63;99.91;93975.00;4980551;28;20197;-41
2023/12/01 06:37:11;;;;;;;14.63;9.83;;;;;;;6.77;100.00;94169.56;4983075;28;20205;-43
2023/12/01 06:39:37;;;;;;;15.23;9.40;;;;;;;6.71;100.00;94150.56;4985114;28;20185;-41
2023/12/01 06:42:06;;;;;;;15.70;10.30;;;;;;;6.82;99.95;94182.69;4983656;28;20197;-43
2023/12/01 06:44:34;;;;;;;15.53;10.10;;;;;;;6.81;100.00;94154.88;4984742;28;20193;-42
2023/12/01 06:47:02;;;;;;;15.67;10.67;;;;;;;6.90;99.63;94159.19;4983189;28;20244;-43
2023/12/01 06:49:28;;;;;;;15.53;10.03;;;;;;;6.95;99.59;94168.03;4983463;28;20227;-42
2023/12/01 06:51:56;;;;;;;15.97;9.17;;;;;;;7.05;99.27;94152.81;4982052;28;20228;-42
2023/12/01 06:54:23;;;;;;;12.90;9.60;;;;;;;7.08;99.24;94157.66;4991245;28;20205;-41
2023/12/01 06:56:50;;;;;;;14.57;9.77;;;;;;;7.16;98.73;94175.56;4985103;28;20622;-42
2023/12/01 06:59:18;;;;;;;18.23;9.47;;;;;;;7.22;98.64;94151.38;4992801;28;20284;-49
2023/12/01 07:01:45;;;;;;;18.27;11.73;;;;;;;7.29;98.10;94173.59;4981492;28;20310;-43
2023/12/01 07:04:13;;;;;;;20.30;12.20;;;;;;;7.27;98.19;94172.94;4980615;28;20202;-42
2023/12/01 07:06:46;;;;;;;16.37;12.07;;;;;;;7.29;98.09;94190.59;4986140;28;20262;-43
2023/12/01 07:09:17;;;;;;;16.47;10.93;;;;;;;6.61;97.81;94098.13;4984623;28;20645;-42
2023/12/01 07:11:44;;;;;;;20.90;12.47;;;;;;;7.39;98.24;94185.56;4992120;28;20196;-40
2023/12/01 07:14:12;;;;;;;18.50;11.20;;;;;;;7.39;98.08;94188.09;4991686;28;20201;-41
2023/12/01 07:16:41;;;;;;;20.13;11.90;;;;;;;7.47;97.69;94176.34;4991611;28;20679;-41
2023/12/01 07:19:08;;;;;;;19.97;11.87;;;;;;;7.51;97.56;94147.16;4988767;28;20209;-41
2023/12/01 07:21:35;;;;;;;29.30;12.70;;;;;;;7.54;97.59;94149.41;4989120;28;20232;-42
2023/12/01 07:24:04;;;;;;;17.53;11.13;;;;;;;7.60;97.18;94182.88;4986311;28;20289;-43
2023/12/01 07:26:33;;;;;;;19.43;12.73;;;;;;;7.72;97.06;94164.03;4991283;28;20216;-41
2023/12/01 07:29:00;;;;;;;19.00;10.00;;;;;;;7.77;97.24;94151.69;4992057;28;20204;-42
2023/12/01 07:31:27;;;;;;;13.20;10.13;;;;;;;7.82;97.12;94166.59;4992360;28;20189;-42
2023/12/01 07:33:55;;;;;;;14.20;10.13;;;;;;;7.92;96.64;94158.00;4990952;28;20221;-43
2023/12/01 07:36:22;;;;;;;15.53;10.13;;;;;;;7.96;96.62;94146.59;4991421;28;20284;-42
2023/12/01 07:38:49;;;;;;;17.70;10.70;;;;;;;7.99;96.45;94164.16;4983591;28;20204;-41
2023/12/01 07:41:16;;;;;;;16.10;10.80;;;;;;;8.13;95.45;94141.78;4988657;28;20247;-41
2023/12/01 07:43:43;;;;;;;15.47;10.23;;;;;;;8.15;95.24;94186.53;4985772;28;20205;-41
2023/12/01 07:46:09;;;;;;;20.33;12.33;;;;;;;8.09;95.37;94132.81;4987279;28;20217;-42
2023/12/01 07:48:36;;;;;;;15.60;10.40;;;;;;;8.22;95.13;94174.88;4989091;28;20184;-41
2023/12/01 07:51:05;;;;;;;17.83;11.47;;;;;;;8.26;95.35;94180.50;4991174;28;20267;-43
2023/12/01 07:53:32;;;;;;;14.53;10.40;;;;;;;8.24;95.00;94197.63;4988313;28;20284;-41
2023/12/01 07:56:00;;;;;;;12.90;9.33;;;;;;;8.32;94.81;94159.56;4983398;28;20228;-41
2023/12/01 07:58:27;;;;;;;14.57;9.37;;;;;;;8.46;94.45;94171.09;4988169;28;20201;-42
2023/12/01 08:00:55;;;;;;;12.87;9.00;;;;;;;7.94;94.01;94066.22;4985249;28;20248;-41
2023/12/01 08:03:23;;;;;;;13.47;8.43;;;;;;;8.57;93.97;94144.66;4977519;28;20217;-42
2023/12/01 08:05:50;;;;;;;16.33;8.90;;;;;;;8.62;93.64;94194.25;4990279;28;20731;-42
2023/12/01 08:08:18;;;;;;;20.67;9.53;;;;;;;8.69;93.56;94186.88;4985111;28;20379;-42
2023/12/01 08:10:45;;;;;;;12.87;8.53;;;;;;;8.69;93.19;94202.97;4983026;28;20190;-41
2023/12/01 08:13:11;;;;;;;11.60;8.93;;;;;;;8.77;92.63;94174.25;4984654;28;20338;-41
2023/12/01 08:15:38;;;;;;;13.43;8.30;;;;;;;8.72;92.95;94199.31;4989706;28;20189;-41
2023/12/01 08:18:05;;;;;;;10.67;8.13;;;;;;;8.71;93.18;94185.78;4990947;28;20623;-42
2023/12/01 08:20:32;;;;;;;13.90;9.17;;;;;;;8.73;92.99;94178.81;4985076;28;20279;-42
2023/12/01 08:22:59;;;;;;;14.30;8.90;;;;;;;8.73;92.54;94178.81;4991020;28;20193;-42
2023/12/01 08:25:28;;;;;;;12.63;8.13;;;;;;;8.83;92.25;94183.06;4983700;28;20212;-42
2023/12/01 08:27:55;;;;;;;10.80;8.50;;;;;;;8.85;92.29;94209.22;4990402;28;20213;-41
2023/12/01 08:30:21;;;;;;;11.03;8.10;;;;;;;8.96;91.52;94181.81;4987917;28;20307;-41
2023/12/01 08:32:48;;;;;;;11.53;8.67;;;;;;;8.96;91.20;94206.50;4982662;28;20209;-41
2023/12/01 08:35:15;;;;;;;13.27;9.00;;;;;;;8.96;91.37;94199.66;4984911;28;20197;-43
2023/12/01 08:37:42;;;;;;;19.30;9.80;;;;;;;9.01;91.20;94173.72;4984389;28;20292;-41
2023/12/01 08:40:11;;;;;;;13.60;9.97;;;;;;;9.03;90.88;94217.75;4985021;28;20279;-41
2023/12/01 08:42:41;;;;;;;13.73;10.07;;;;;;;9.15;90.66;94182.66;4988329;28;20193;-43
2023/12/01 08:45:09;;;;;;;12.33;9.00;;;;;;;9.23;90.31;94165.69;4990226;28;20715;-42
2023/12/01 08:47:35;;;;;;;15.90;9.40;;;;;;;9.29;90.33;94183.00;4986832;28;20232;-41
2023/12/01 08:50:02;;;;;;;14.43;9.40;;;;;;;9.41;89.92;94180.25;4986156;28;20204;-42
2023/12/01 08:52:29;;;;;;;13.70;8.93;;;;;;;9.51;89.03;94158.84;4986814;28;20623;-42
2023/12/01 08:54:56;;;;;;;15.50;9.87;;;;;;;9.53;88.98;94177.34;4985127;28;20197;-43
2023/12/01 08:57:23;;;;;;;14.03;9.40;;;;;;;9.45;88.93;94151.72;4990060;28;20255;-41
2023/12/01 08:59:51;;;;;;;13.30;8.77;;;;;;;9.61;89.04;94145.19;4982676;28;20257;-42
2023/12/01 09:02:18;;;;;;;13.50;9.60;;;;;;;9.51;89.01;94145.28;4987234;28;20190;-41
2023/12/01 09:04:45;;;;;;;14.07;9.40;;;;;;;9.72;88.96;94127.13;4989605;28;20196;-42
2023/12/01 09:07:12;;;;;;;13.97;9.40;;;;;;;9.82;88.89;94148.25;4988110;28;20247;-42
2023/12/01 09:09:39;;;;;;;16.53;9.53;;;;;;;10.06;88.28;94127.25;4993430;28;20209;-41
2023/12/01 09:12:06;;;;;;;17.50;9.63;;;;;;;10.19;87.53;94142.16;4987494;28;20210;-42
2023/12/01 09:14:33;;;;;;;11.07;8.10;;;;;;;10.30;87.54;94141.97;4990081;28;20579;-41
2023/12/01 09:17:01;;;;;;;10.93;7.67;;;;;;;10.36;87.25;94151.56;4984469;28;20207;-42
2023/12/01 09:19:28;;;;;;;15.37;7.30;;;;;;;10.50;86.77;94089.69;4989229;28;20201;-41
2023/12/01 09:21:55;;;;;;;9.97;6.50;;;;;;;10.49;86.21;94123.88;4984095;28;20217;-42
2023/12/01 09:24:21;;;;;;;9.93;6.43;;;;;;;10.62;86.17;94141.38;4985000;28;20603;-42
2023/12/01 09:26:49;;;;;;;13.80;7.50;;;;;;;10.57;85.62;94109.53;4989870;28;20232;-42
2023/12/01 09:29:16;;;;;;;14.00;8.40;;;;;;;10.83;84.70;94151.22;4986992;28;20676;-42
2023/12/01 09:31:44;;;;;;;14.10;9.27;;;;;;;10.85;84.78;94151.88;4981941;28;20583;-41
2023/12/01 09:34:13;;;;;;;14.93;10.33;;;;;;;10.83;85.49;94176.78;4988731;28;20220;-41
2023/12/01 09:36:42;;;;;;;15.93;9.43;;;;;;;10.79;84.86;94143.06;4982276;28;20201;-41
2023/12/01 09:39:09;;;;;;;15.97;9.60;;;;;;;10.73;85.02;94119.84;4987349;28;20197;-41
2023/12/01 09:41:36;;;;;;;16.47;10.43;;;;;;;10.68;85.69;94179.13;4989748;28;20288;-43
2023/12/01 09:44:03;;;;;;;15.77;9.33;;;;;;;10.61;85.76;94157.66;4980843;28;20272;-41
2023/12/01 09:46:34;;;;;;;15.37;10.87;;;;;;;10.66;85.90;94162.31;4983227;28;20212;-44
2023/12/01 09:49:04;;;;;;;17.30;11.27;;;;;;;10.68;86.13;94145.88;4982971;28;20198;-43
2023/12/01 09:51:34;;;;;;;11.80;7.20;;;;;;;10.64;86.43;94136.09;4985947;28;20193;-44
2023/12/01 09:54:01;;;;;;;12.47;7.50;;;;;;;10.70;86.50;94131.16;4983870;28;20229;-41
2023/12/01 09:56:28;;;;;;;9.27;6.87;;;;;;;10.92;86.20;94150.28;4985774;28;20556;-43
2023/12/01 09:58:56;;;;;;;13.23;7.23;;;;;;;10.94;85.63;94101.56;4981721;28;20216;-43
2023/12/01 10:01:23;;;;;;;8.40;7.00;;;;;;;11.23;85.38;94131.88;4988174;28;20571;-43
2023/12/01 10:03:50;;;;;;;9.33;6.47;;;;;;;11.40;85.06;94110.50;4982587;28;20739;-42
2023/12/01 10:06:17;;;;;;;10.93;6.80;;;;;;;11.69;84.27;94157.91;4986566;28;20189;-42
2023/12/01 10:08:48;;;;;;;7.73;5.83;;;;;;;11.86;83.69;94146.75;4982408;28;20240;-42
2023/12/01 10:11:22;;;;;;;10.17;6.27;;;;;;;12.10;83.03;94134.91;4983469;28;20204;-41
2023/12/01 10:13:51;;;;;;;8.63;5.30;;;;;;;12.09;82.51;94108.50;4983704;28;20185;-42
2023/12/01 10:16:18;;;;;;;10.53;5.97;;;;;;;12.26;82.10;94107.50;4985383;28;20276;-43
2023/12/01 10:18:57;;;;;;;9.20;6.00;;;;;;;12.43;81.87;94092.09;4981861;28;20193;-43
2023/12/01 10:21:41;;;;;;;11.07;5.83;;;;;;;12.67;80.97;94101.50;4984812;28;20239;-43
2023/12/01 10:24:15;;;;;;;11.73;5.73;;;;;;;12.92;80.52;94131.25;4988129;28;20769;-42
2023/12/01 10:26:43;;;;;;;10.97;5.17;;;;;;;13.16;79.89;94102.09;4988694;28;20224;-42
2023/12/01 10:29:28;;;;;;;5.93;4.87;;;;;;;13.44;79.27;94105.03;4985541;28;20201;-42
2023/12/01 10:31:56;;;;;;;7.60;4.73;;;;;;;13.73;77.54;94121.53;4991472;28;20197;-42
2023/12/01 10:34:23;;;;;;;6.43;4.90;;;;;;;14.04;76.72;94098.38;4988857;28;20211;-42
2023/12/01 10:36:52;;;;;;;5.40;4.27;;;;;;;14.18;75.42;94066.72;4992842;28;20259;-42
2023/12/01 10:39:24;;;;;;;9.57;4.10;;;;;;;14.41;75.48;94097.53;4992741;28;20307;-42
2023/12/01 10:41:51;;;;;;;7.50;4.27;;;;;;;14.65;75.41;94077.72;4987536;28;20300;-43
2023/12/01 10:44:19;;;;;;;8.17;4.97;;;;;;;14.99;74.44;94100.34;4984770;28;20205;-43
2023/12/01 10:46:49;;;;;;;8.07;4.70;;;;;;;15.15;72.90;94083.88;4988527;28;20648;-41
2023/12/01 10:49:17;;;;;;;7.17;5.30;;;;;;;15.32;72.22;94091.22;4987148;28;20648;-43
2023/12/01 10:51:45;;;;;;;8.20;5.80;;;;;;;15.42;71.88;94085.78;4992419;28;20189;-44
2023/12/01 10:54:14;;;;;;;8.97;6.17;;;;;;;15.45;71.40;94069.94;4992087;28;20212;-41
2023/12/01 10:56:53;;;;;;;12.60;6.83;;;;;;;15.49;71.13;94091.00;4988676;28;20662;-42
2023/12/01 10:59:23;;;;;;;9.83;6.47;;;;;;;15.49;70.73;94068.59;4986501;28;20204;-42
2023/12/01 11:01:52;;;;;;;10.33;7.20;;;;;;;15.53;71.13;94082.72;4989903;28;20209;-42
2023/12/01 11:04:26;;;;;;;9.27;6.70;;;;;;;15.64;71.17;94089.22;4992498;28;20200;-44
2023/12/01 11:07:20;;;;;;;10.80;7.13;;;;;;;15.86;69.42;94084.84;4992030;28;20216;-42
2023/12/01 11:10:04;;;;;;;9.33;6.63;;;;;;;15.86;69.80;94084.06;4912692;29;20247;-44
2023/12/01 11:12:44;;;;;;;11.47;7.97;;;;;;;15.73;70.22;94067.47;4912729;29;20203;-43
2023/12/01 11:15:16;;;;;;;12.53;7.53;;;;;;;15.86;70.05;94066.81;4912725;29;20203;-42
2023/12/01 11:17:43;;;;;;;12.70;7.10;;;;;;;15.85;69.57;94046.38;4913096;29;20196;-41
2023/12/01 11:20:32;;;;;;;12.20;8.20;;;;;;;15.84;70.07;94067.97;4912638;29;20630;-44
2023/12/01 11:23:04;;;;;;;15.53;9.20;;;;;;;15.90;69.93;94049.19;4912580;29;20199;-44
2023/12/01 11:25:41;;;;;;;10.77;7.37;;;;;;;15.93;70.13;94041.06;4913013;29;20659;-42
2023/12/01 11:28:22;;;;;;;13.30;9.23;;;;;;;15.88;70.08;94045.97;4910136;29;20223;-43